Harlev, Denmark
Current Conditions -  °F | °C
As of 10:50 AM on Sunday 25 Jan 2015 (Local Time) from EKRK Reporting Station
Clear Clear  
Wind Chill: 26°   Ceiling: Unl
Heat Index: 32°   Visibility: 6mi
Dew Point: 30°   Wind: 6mph
Humidity: 93%   Direction: 270°W
Pressure: 30.15"   Gusts: NA
Location:  55.35°N, 12.23°E
Report Text: EKRK 250950Z AUTO 27005KT 9999NDV NCD M00/M01 Q1021 R03/790549R11/790556
Loading
Personal Weather Stations






























Interactive Weather Map New forecast layout! Learn more

10-Day Weather Forecast

Advertisements
Track Severe Weather on mobile